Oshkosh, WI (54902)

7:32 PM CDT on September 30, 2014 (GMT -0500)
Town of Algoma | Change Station
CLOSE
Current Station
Personal Weather Station
Location: Oshkosh, WI
Elevation: 791 ft
Nearby Weather Stations

Elev 791 ft 44.04 °N, 88.61 °W | Updated 14 minutes ago

Overcast
Overcast
48.4 °F
Feels Like 48 °F
N
2.7
Wind Variable Wind from East

Today
High -- | Low -- °F
--% Chance of Precip.
Yesterday
High -- | Low -- °F
Precip. -- in
6:51 AM 6:37 PM
Waxing Crescent, 41% visible
Pressure 30.06 in
Visibility 10.0 miles
Clouds Overcast 1300 ft
Windchill 48 °F
Dew Point 45 °F
Humidity 87%
Rainfall 0.00 in
Snow Depth Not available.
UV 0 out of 12
Pollen 2.00 out of 12
PM2.5 Good
Flu Activity Not available.
METAR KOSH 302353Z 11005KT 10SM OVC013 09/07 A3004 RMK AO2 SLP178 T00940067 10100 20089 56002

More Conditions Fewer Conditions

Pressure 30.06 in
Visibility 10.0 miles
Clouds Overcast 1300 ft
Windchill 48 °F
Dew Point 45 °F
Humidity 87%
Rainfall 0.00 in
Snow Depth Not available.
UV 0 out of 12
Pollen 2.00 out of 12
PM2.5 Good
Flu Activity Not available.
METAR KOSH 302353Z 11005KT 10SM OVC013 09/07 A3004 RMK AO2 SLP178 T00940067 10100 20089 56002

More Conditions Fewer Conditions

10-Day Weather Forecast

Almanac

Astronomy

Sep. 30, 2014 Rise Set
Actual Time 6:51 AM CDT 6:37 PM CDT
Civil Twilight 6:22 AM CDT 7:06 PM CDT
Nautical Twilight 5:48 AM CDT 7:39 PM CDT
Astronomical Twilight 5:14 AM CDT 8:13 PM CDT
Moon 1:08 PM CDT (9/30) 10:58 PM CDT (9/30)
Length of Visible Light 12h 43m
Length of Day
11h 46m
Tomorrow will be 3m 0s shorter.
Waxing Crescent, 41% of the Moon is Illuminated
Today
Waxing Crescent
Oct 1
First Quarter
Oct 8
Full
Oct 15
Last Quarter
Oct 23
New

Today's Extremes

State Highs State Lows

Community

WunderPhotos

Upload Photos

1,757,792 photos uploaded!

Nearby

Air Quality

  Air Quality AQ Index Pollutant
Yesterday Good
PM10
Yesterday Good
OZONE
Current Good
PM2.5
Tuesday Good
PM2.5
Tuesday Good
OZONE
Wednesday Good
PM2.5
Wednesday Good
OZONE
Thursday Good
PM2.5
Thursday Good
OZONE
Friday Good
PM2.5
Friday Good
OZONE
Saturday Good
PM2.5
Saturday Good
OZONE
Sunday Good
PM2.5
Sunday Good
OZONE

Snow Depth

Station Depth Elevation
No new snow has been reported.

Earthquake Activity

City Distance Mag. Time & Date
No recent earthquake activity has been reported nearby.
Minimum magnitude displayed is 2.5.

Coastal Water Temperatures

Place Temperature
No Stations Reporting

Nearby Weather Stations